Time;durP1;ratioP1;P1;durP2;ratioP2;P2;SDS_P1;SDS_P2;PMS_P1;PMS_P2;Temp;Humidity;BMP_temperature;BMP_pressure;BME280_temperature;BME280_humidity;BME280_pressure;Samples;Min_cycle;Max_cycle;Signal;HPM_P1;HPM_P2
2023/03/16 00:00:16;;;;;;;4.07;1.90;;;4.80;99.90;;;;;;5052609;28;20461;-81
2023/03/16 00:02:42;;;;;;;4.93;1.80;;;4.80;99.90;;;;;;5069820;28;20419;-81
2023/03/16 00:05:11;;;;;;;5.18;1.80;;;5.10;99.90;;;;;;5071914;28;20059;-81
2023/03/16 00:07:37;;;;;;;5.47;1.70;;;5.30;99.90;;;;;;5073105;28;20033;-81
2023/03/16 00:10:03;;;;;;;5.53;2.33;;;4.70;99.90;;;;;;5072928;28;20032;-81
2023/03/16 00:12:29;;;;;;;3.83;1.83;;;4.80;99.90;;;;;;5039939;28;20033;-81
2023/03/16 00:14:54;;;;;;;2.88;1.77;;;4.80;99.90;;;;;;5039849;28;20032;-81
2023/03/16 00:17:20;;;;;;;5.82;1.90;;;4.80;99.90;;;;;;5072206;28;20411;-81
2023/03/16 00:19:53;;;;;;;4.60;1.88;;;4.80;99.90;;;;;;5039612;28;20055;-81
2023/03/16 00:22:20;;;;;;;6.28;1.80;;;4.80;99.90;;;;;;5073269;28;20041;-81
2023/03/16 00:24:46;;;;;;;6.50;1.77;;;4.90;99.90;;;;;;5056524;28;20040;-81
2023/03/16 00:27:13;;;;;;;6.70;1.80;;;4.90;99.90;;;;;;5071853;28;20036;-81
2023/03/16 00:29:46;;;;;;;3.15;1.70;;;4.80;99.90;;;;;;5071126;28;20056;-81
2023/03/16 00:32:23;;;;;;;3.67;2.20;;;4.90;99.90;;;;;;5070907;28;20064;-81
2023/03/16 00:34:50;;;;;;;8.43;1.90;;;4.90;99.90;;;;;;5071069;28;20087;-81
2023/03/16 00:37:17;;;;;;;7.47;1.73;;;4.90;99.90;;;;;;5071458;28;20044;-81
2023/03/16 00:39:44;;;;;;;3.15;1.65;;;5.10;99.90;;;;;;5055774;28;20401;-81
2023/03/16 00:42:12;;;;;;;7.60;2.10;;;5.80;99.90;;;;;;5055151;28;20063;-81
2023/03/16 00:44:38;;;;;;;5.68;2.00;;;4.80;99.90;;;;;;5055539;28;20087;-81
2023/03/16 00:47:05;;;;;;;6.03;1.98;;;4.70;99.90;;;;;;5071840;28;20070;-81
2023/03/16 00:49:34;;;;;;;3.30;1.77;;;4.80;99.90;;;;;;5069630;28;20120;-81
2023/03/16 00:52:02;;;;;;;4.30;1.80;;;4.80;99.90;;;;;;5022997;28;20068;-81
2023/03/16 00:54:28;;;;;;;5.65;2.10;;;5.10;99.90;;;;;;5036861;28;20393;-81
2023/03/16 00:56:55;;;;;;;4.57;1.85;;;5.00;99.90;;;;;;5072569;28;20484;-81
2023/03/16 00:59:20;;;;;;;4.32;1.92;;;5.10;99.90;;;;;;5071699;28;20094;-81
2023/03/16 01:01:46;;;;;;;2.77;1.87;;;4.80;99.90;;;;;;5055355;28;20036;-80
2023/03/16 01:04:12;;;;;;;4.28;2.15;;;4.80;99.90;;;;;;5054942;28;20661;-81
2023/03/16 01:06:40;;;;;;;6.90;2.40;;;4.80;99.90;;;;;;5071930;28;20082;-81
2023/03/16 01:09:06;;;;;;;5.90;2.08;;;4.90;99.90;;;;;;5071497;28;20060;-81
2023/03/16 01:11:34;;;;;;;5.13;1.73;;;4.80;99.90;;;;;;5038667;28;20040;-81
2023/03/16 01:14:00;;;;;;;6.47;2.67;;;4.90;99.90;;;;;;5055294;28;20452;-81
2023/03/16 01:16:26;;;;;;;8.38;2.10;;;4.80;99.90;;;;;;5038172;28;20115;-81
2023/03/16 01:18:52;;;;;;;6.45;2.00;;;4.80;99.90;;;;;;5054904;28;20112;-81
2023/03/16 01:21:18;;;;;;;;;;;4.80;99.90;;;;;;5071597;28;20135;-81
2023/03/16 01:23:44;;;;;;;8.55;1.90;;;4.70;99.90;;;;;;5054974;28;20002;-81
2023/03/16 01:26:10;;;;;;;4.20;1.83;;;4.70;99.90;;;;;;5038005;28;20063;-81
2023/03/16 01:28:36;;;;;;;3.22;1.73;;;5.30;99.90;;;;;;5038254;28;20503;-81
2023/03/16 01:31:08;;;;;;;4.03;1.70;;;4.80;99.90;;;;;;5071269;28;20101;-81
2023/03/16 01:33:34;;;;;;;4.57;2.15;;;4.70;99.90;;;;;;5103633;28;20033;-81
2023/03/16 01:36:03;;;;;;;3.00;1.63;;;4.70;99.90;;;;;;5070814;28;20040;-81
2023/03/16 01:38:29;;;;;;;3.60;1.98;;;4.90;99.90;;;;;;5071379;28;20408;-81
2023/03/16 01:40:55;;;;;;;4.22;2.08;;;4.80;99.90;;;;;;5037793;28;20029;-80
2023/03/16 01:43:23;;;;;;;8.15;2.53;;;4.80;99.90;;;;;;5070736;28;20036;-81
2023/03/16 01:46:04;;;;;;;4.15;2.25;;;4.70;99.90;;;;;;5070568;28;20469;-81
2023/03/16 01:48:52;;;;;;;4.63;2.30;;;4.70;99.90;;;;;;5071032;28;20040;-81
2023/03/16 01:51:22;;;;;;;4.63;2.38;;;4.70;99.90;;;;;;5070330;28;20032;-81
2023/03/16 01:53:52;;;;;;;6.85;2.33;;;4.70;99.90;;;;;;5054037;28;20039;-81
2023/03/16 01:56:26;;;;;;;4.43;2.25;;;4.70;99.90;;;;;;5070451;28;20032;-81
2023/03/16 01:58:57;;;;;;;5.75;2.70;;;4.70;99.90;;;;;;5053337;28;20040;-81
2023/03/16 02:01:25;;;;;;;6.78;2.50;;;5.30;99.90;;;;;;5071250;28;20036;-81
2023/03/16 02:03:59;;;;;;;4.43;2.55;;;4.70;99.90;;;;;;5072018;28;20047;-81
2023/03/16 02:06:25;;;;;;;6.57;2.70;;;4.70;99.90;;;;;;5069750;28;20151;-81
2023/03/16 02:08:54;;;;;;;4.45;2.70;;;4.70;99.90;;;;;;5054686;28;20514;-81
2023/03/16 02:11:21;;;;;;;5.15;2.30;;;4.70;99.90;;;;;;5054957;28;20050;-81
2023/03/16 02:13:48;;;;;;;5.38;2.40;;;4.70;99.90;;;;;;5055008;28;20492;-81
2023/03/16 02:16:18;;;;;;;5.93;2.70;;;4.70;99.90;;;;;;5071825;28;20040;-81
2023/03/16 02:18:49;;;;;;;4.95;2.58;;;4.60;99.90;;;;;;5072188;28;20040;-82
2023/03/16 02:21:34;;;;;;;4.28;2.47;;;4.60;99.90;;;;;;5055891;28;20400;-82
2023/03/16 02:24:02;;;;;;;4.13;2.30;;;4.60;99.90;;;;;;5055132;28;20104;-81
2023/03/16 02:26:56;;;;;;;7.47;2.80;;;4.60;99.90;;;;;;5072174;28;20390;-82
2023/03/16 02:29:44;;;;;;;5.25;2.60;;;4.60;99.90;;;;;;5068891;28;20055;-82
2023/03/16 02:32:12;;;;;;;8.00;3.38;;;4.60;99.90;;;;;;5070851;28;20072;-81
2023/03/16 02:34:38;;;;;;;6.45;2.55;;;4.60;99.90;;;;;;5054116;28;20119;-82
2023/03/16 02:37:04;;;;;;;8.00;2.60;;;4.60;99.90;;;;;;5054146;28;20133;-82
2023/03/16 02:39:30;;;;;;;;;;;4.60;99.90;;;;;;5070837;28;20044;-81
2023/03/16 02:41:56;;;;;;;8.63;3.75;;;5.20;99.90;;;;;;5053648;28;19927;-82
2023/03/16 02:44:26;;;;;;;7.43;2.90;;;4.60;99.90;;;;;;5053693;28;20049;-82
2023/03/16 02:46:58;;;;;;;4.05;2.50;;;4.60;99.90;;;;;;5054155;28;20051;-81
2023/03/16 02:49:31;;;;;;;6.93;3.10;;;4.60;99.90;;;;;;5068199;28;20074;-81
2023/03/16 02:51:57;;;;;;;4.47;2.92;;;4.60;99.90;;;;;;5054345;28;20033;-80
2023/03/16 02:54:23;;;;;;;8.40;4.00;;;4.60;99.90;;;;;;5053687;28;20041;-82
2023/03/16 02:56:49;;;;;;;6.70;3.05;;;5.00;99.90;;;;;;5070948;28;20452;-82
2023/03/16 02:59:15;;;;;;;;;;;4.70;99.90;;;;;;5052869;28;20037;-81
2023/03/16 03:01:41;;;;;;;8.07;3.15;;;4.70;99.90;;;;;;5069487;28;19939;-82
2023/03/16 03:04:07;;;;;;;6.13;3.43;;;4.60;99.90;;;;;;5052920;28;20480;-82
2023/03/16 03:06:33;;;;;;;;;;;4.70;99.90;;;;;;5069791;28;20312;-81
2023/03/16 03:09:00;;;;;;;8.13;2.80;;;5.30;99.90;;;;;;5052984;28;19929;-81
2023/03/16 03:11:26;;;;;;;7.07;3.05;;;4.70;99.90;;;;;;5068771;28;20099;-81
2023/03/16 03:13:54;;;;;;;5.45;2.83;;;4.70;99.90;;;;;;5069426;28;20059;-82
2023/03/16 03:16:20;;;;;;;5.50;2.60;;;4.70;99.90;;;;;;5069025;28;20074;-82
2023/03/16 03:18:46;;;;;;;6.07;3.03;;;5.30;99.90;;;;;;5052391;28;20039;-82
2023/03/16 03:21:12;;;;;;;6.75;2.65;;;5.20;99.90;;;;;;5034550;28;20044;-82
2023/03/16 03:23:38;;;;;;;6.38;2.90;;;4.80;99.90;;;;;;5052641;28;20041;-82
2023/03/16 03:26:03;;;;;;;7.43;3.10;;;4.80;99.90;;;;;;5052655;28;20032;-82
2023/03/16 03:28:30;;;;;;;3.97;2.25;;;4.80;99.90;;;;;;5052309;28;20416;-82
2023/03/16 03:30:56;;;;;;;4.97;2.25;;;4.80;99.90;;;;;;5036275;28;20044;-81
2023/03/16 03:33:22;;;;;;;3.40;2.25;;;4.80;99.90;;;;;;5068264;28;20040;-82
2023/03/16 03:35:57;;;;;;;5.00;2.80;;;4.90;99.90;;;;;;5070364;28;20036;-81
2023/03/16 03:38:24;;;;;;;4.72;2.40;;;4.90;99.90;;;;;;5068926;28;20436;-82
2023/03/16 03:40:58;;;;;;;4.47;2.38;;;4.80;99.90;;;;;;5052742;28;20075;-81
2023/03/16 03:43:24;;;;;;;5.45;2.63;;;4.90;99.90;;;;;;5070132;28;20461;-82
2023/03/16 03:45:57;;;;;;;6.50;2.53;;;4.80;99.90;;;;;;5053453;28;20040;-82
2023/03/16 03:48:23;;;;;;;5.45;2.55;;;4.80;99.90;;;;;;5068529;28;20041;-82
2023/03/16 03:50:49;;;;;;;5.05;2.60;;;4.80;99.90;;;;;;5036125;28;20041;-82
2023/03/16 03:53:15;;;;;;;6.93;3.38;;;5.00;99.90;;;;;;5033602;28;20476;-82
2023/03/16 03:55:41;;;;;;;7.47;2.83;;;5.50;99.90;;;;;;5069259;28;20492;-82
2023/03/16 03:58:07;;;;;;;6.43;2.80;;;5.00;99.90;;;;;;5035836;28;20305;-82
2023/03/16 04:00:32;;;;;;;4.43;2.38;;;5.10;99.90;;;;;;5036290;28;20040;-82
2023/03/16 04:02:58;;;;;;;8.90;2.55;;;4.80;99.90;;;;;;5069369;28;20044;-82
2023/03/16 04:05:28;;;;;;;3.35;2.38;;;4.90;99.90;;;;;;5052053;28;20043;-82
2023/03/16 04:07:56;;;;;;;5.68;2.75;;;5.00;99.90;;;;;;5052552;28;20044;-82
2023/03/16 04:10:24;;;;;;;5.30;2.78;;;5.00;99.90;;;;;;5068654;28;20063;-82
2023/03/16 04:12:49;;;;;;;9.23;2.28;;;4.80;99.90;;;;;;5052605;28;20532;-82
2023/03/16 04:15:15;;;;;;;4.53;2.25;;;4.80;99.90;;;;;;5068957;28;20087;-82
2023/03/16 04:17:41;;;;;;;2.85;1.60;;;4.80;99.90;;;;;;5069069;28;20392;-82
2023/03/16 04:20:13;;;;;;;6.93;2.65;;;5.10;99.90;;;;;;5069226;28;20048;-82
2023/03/16 04:22:41;;;;;;;6.20;3.10;;;4.80;99.90;;;;;;5052572;28;20195;-82
2023/03/16 04:25:09;;;;;;;5.20;2.70;;;4.80;99.90;;;;;;5052574;28;20400;-81
2023/03/16 04:27:35;;;;;;;4.47;3.47;;;4.70;99.90;;;;;;5051530;28;20045;-82
2023/03/16 04:30:05;;;;;;;5.82;2.65;;;4.70;99.90;;;;;;5051943;28;20057;-81
2023/03/16 04:32:34;;;;;;;3.83;2.28;;;4.70;99.90;;;;;;5068693;28;20040;-82
2023/03/16 04:35:00;;;;;;;7.40;3.40;;;4.70;99.90;;;;;;5052098;28;20037;-82
2023/03/16 04:37:26;;;;;;;5.47;2.47;;;4.70;99.90;;;;;;5051864;28;20040;-82
2023/03/16 04:39:52;;;;;;;4.63;2.55;;;4.80;99.90;;;;;;5052011;28;20174;-82
2023/03/16 04:42:17;;;;;;;3.27;2.13;;;4.90;99.90;;;;;;5069134;28;20044;-82
2023/03/16 04:44:43;;;;;;;7.17;2.70;;;4.80;99.90;;;;;;5068660;28;20369;-82
2023/03/16 04:47:13;;;;;;;3.95;2.35;;;4.70;99.90;;;;;;5068996;28;20094;-82
2023/03/16 04:49:38;;;;;;;5.25;2.70;;;4.80;99.90;;;;;;5066677;28;20036;-82
2023/03/16 04:52:05;;;;;;;3.97;2.70;;;4.70;99.90;;;;;;5071997;28;20040;-82
2023/03/16 04:54:32;;;;;;;7.13;3.00;;;4.70;99.90;;;;;;5055640;28;20029;-82
2023/03/16 04:56:59;;;;;;;7.13;2.80;;;4.70;99.90;;;;;;5056668;28;20040;-82
2023/03/16 04:59:25;;;;;;;5.97;2.53;;;4.70;99.90;;;;;;5072389;28;20115;-82
2023/03/16 05:01:51;;;;;;;3.58;2.30;;;4.70;99.90;;;;;;5055996;28;20467;-82
2023/03/16 05:04:16;;;;;;;4.23;2.13;;;4.80;99.90;;;;;;5072978;28;20070;-82
2023/03/16 05:06:42;;;;;;;4.55;2.60;;;4.90;99.90;;;;;;5071814;28;20040;-82
2023/03/16 05:09:08;;;;;;;5.25;2.72;;;4.80;99.90;;;;;;5072781;28;20127;-82
2023/03/16 05:11:35;;;;;;;5.13;3.00;;;4.70;99.90;;;;;;5055473;28;20028;-82
2023/03/16 05:14:01;;;;;;;6.22;2.97;;;4.80;99.90;;;;;;5057978;28;20556;-82
2023/03/16 05:16:27;;;;;;;6.15;2.95;;;4.70;99.90;;;;;;5054942;28;20112;-83
2023/03/16 05:18:56;;;;;;;7.38;2.70;;;4.70;99.90;;;;;;5072088;28;20146;-83
2023/03/16 05:21:22;;;;;;;6.15;2.95;;;4.70;99.90;;;;;;5072012;28;20036;-83
2023/03/16 05:23:47;;;;;;;6.67;2.57;;;4.70;99.90;;;;;;5072172;28;20043;-83
2023/03/16 05:26:13;;;;;;;5.47;3.00;;;4.80;99.90;;;;;;5055938;28;20344;-81
2023/03/16 05:28:39;;;;;;;4.93;2.60;;;4.80;99.90;;;;;;5055286;28;20048;-82
2023/03/16 05:31:05;;;;;;;7.68;2.83;;;4.80;99.90;;;;;;5039568;28;20356;-82
2023/03/16 05:33:30;;;;;;;5.75;2.63;;;4.80;99.90;;;;;;5055792;28;20035;-83
2023/03/16 05:35:56;;;;;;;4.35;2.38;;;4.90;99.90;;;;;;5072795;28;20425;-83
2023/03/16 05:38:23;;;;;;;8.35;3.40;;;4.90;99.90;;;;;;5056556;28;20044;-82
2023/03/16 05:40:53;;;;;;;7.18;2.97;;;4.80;99.90;;;;;;5040037;28;20105;-83
2023/03/16 05:43:20;;;;;;;5.43;2.40;;;4.90;99.90;;;;;;5072576;28;20041;-84
2023/03/16 05:45:46;;;;;;;7.28;3.28;;;4.90;99.90;;;;;;5056140;28;20492;-85
2023/03/16 05:48:13;;;;;;;6.38;3.05;;;4.80;99.90;;;;;;5071772;28;20043;-84
2023/03/16 05:50:40;;;;;;;5.28;2.33;;;5.30;99.90;;;;;;5039882;28;20040;-81
2023/03/16 05:53:07;;;;;;;7.47;3.10;;;4.80;99.90;;;;;;5039558;28;20041;-84
2023/03/16 05:55:33;;;;;;;7.43;2.33;;;4.90;99.90;;;;;;5053421;28;20060;-84
2023/03/16 05:57:59;;;;;;;4.63;2.80;;;4.90;99.90;;;;;;5039021;28;20046;-85
2023/03/16 06:00:26;;;;;;;6.53;2.75;;;4.80;99.90;;;;;;5071479;28;20040;-84
2023/03/16 06:02:52;;;;;;;;;;;5.00;99.90;;;;;;5020836;28;20040;-84
2023/03/16 06:05:20;;;;;;;5.05;2.55;;;4.90;99.90;;;;;;5054816;28;19916;-84
2023/03/16 06:07:46;;;;;;;4.57;2.72;;;5.30;99.90;;;;;;5054845;28;20048;-85
2023/03/16 06:10:13;;;;;;;9.60;4.00;;;4.90;99.90;;;;;;5038355;28;20033;-85
2023/03/16 06:12:40;;;;;;;5.38;2.22;;;4.80;99.90;;;;;;5054106;28;20044;-85
2023/03/16 06:15:07;;;;;;;3.90;2.70;;;4.90;99.90;;;;;;5054739;28;20043;-84
2023/03/16 06:17:34;;;;;;;3.78;2.25;;;4.90;99.90;;;;;;5021047;28;20495;-84
2023/03/16 06:20:00;;;;;;;7.93;3.50;;;4.90;99.90;;;;;;5066349;28;20085;-84
2023/03/16 06:22:26;;;;;;;8.55;3.53;;;5.10;99.90;;;;;;5038268;28;20039;-84
2023/03/16 06:24:52;;;;;;;6.72;3.05;;;5.10;99.90;;;;;;5071223;28;20040;-84
2023/03/16 06:27:19;;;;;;;5.80;3.05;;;4.90;99.90;;;;;;5071361;28;20437;-85
2023/03/16 06:29:46;;;;;;;5.95;3.08;;;4.90;99.90;;;;;;5054523;28;20148;-84
2023/03/16 06:32:12;;;;;;;6.28;2.92;;;4.90;99.90;;;;;;5071671;28;20438;-85
2023/03/16 06:34:38;;;;;;;;;;;5.00;99.90;;;;;;5053917;28;20047;-85
2023/03/16 06:37:04;;;;;;;7.80;2.90;;;4.90;99.90;;;;;;5054366;28;19916;-84
2023/03/16 06:39:30;;;;;;;6.07;3.03;;;4.90;99.90;;;;;;5037593;28;20112;-85
2023/03/16 06:41:56;;;;;;;5.10;3.13;;;5.30;99.90;;;;;;5070993;28;20048;-85
2023/03/16 06:44:22;;;;;;;5.00;2.97;;;5.30;99.90;;;;;;5052385;28;20561;-84
2023/03/16 06:46:48;;;;;;;7.00;2.85;;;5.00;99.90;;;;;;5054594;28;20097;-85
2023/03/16 06:49:13;;;;;;;4.60;2.77;;;5.00;99.90;;;;;;5037866;28;20024;-85
2023/03/16 06:51:40;;;;;;;5.20;2.13;;;5.00;99.90;;;;;;5055037;28;20693;-85
2023/03/16 06:54:06;;;;;;;5.88;2.85;;;5.00;99.90;;;;;;5052887;28;20044;-85
2023/03/16 06:56:33;;;;;;;6.72;3.40;;;5.00;99.90;;;;;;5069704;28;20086;-85
2023/03/16 06:58:58;;;;;;;6.03;2.88;;;5.10;99.90;;;;;;5054158;28;20557;-85
2023/03/16 07:01:24;;;;;;;4.93;2.78;;;5.00;99.90;;;;;;5037484;28;20040;-85
2023/03/16 07:03:50;;;;;;;5.78;2.58;;;5.10;99.90;;;;;;5037862;28;20036;-84
2023/03/16 07:06:16;;;;;;;5.70;3.17;;;5.10;99.90;;;;;;5054640;28;20043;-84
2023/03/16 07:08:41;;;;;;;4.75;2.45;;;5.10;99.90;;;;;;5054693;28;20041;-85
2023/03/16 07:11:08;;;;;;;6.67;2.77;;;5.30;99.90;;;;;;5055032;28;20044;-84
2023/03/16 07:13:34;;;;;;;5.63;3.08;;;5.10;99.90;;;;;;5037536;28;20456;-85
2023/03/16 07:16:00;;;;;;;5.07;2.72;;;5.10;99.90;;;;;;5055230;28;20068;-85
2023/03/16 07:18:26;;;;;;;3.97;2.72;;;5.10;99.90;;;;;;5020032;28;20033;-84
2023/03/16 07:20:53;;;;;;;4.00;2.33;;;5.20;99.90;;;;;;5036840;28;20039;-84
2023/03/16 07:23:19;;;;;;;4.53;2.55;;;5.10;99.90;;;;;;5036724;28;20074;-83
2023/03/16 07:25:45;;;;;;;5.45;2.42;;;5.20;99.90;;;;;;5069854;28;20041;-83
2023/03/16 07:28:11;;;;;;;5.47;3.30;;;5.30;99.90;;;;;;5053036;28;20108;-83
2023/03/16 07:30:37;;;;;;;5.57;2.70;;;5.20;99.90;;;;;;5052833;28;20532;-84
2023/03/16 07:33:04;;;;;;;8.65;2.88;;;5.20;99.90;;;;;;5054610;28;20406;-84
2023/03/16 07:35:30;;;;;;;3.50;2.47;;;5.40;99.90;;;;;;5071252;28;20037;-83
2023/03/16 07:37:56;;;;;;;8.23;3.13;;;5.20;99.90;;;;;;5071073;28;20032;-84
2023/03/16 07:40:22;;;;;;;4.68;2.88;;;5.30;99.90;;;;;;5070763;28;20098;-84
2023/03/16 07:42:48;;;;;;;4.07;2.65;;;5.40;99.90;;;;;;5054189;28;20516;-84
2023/03/16 07:45:16;;;;;;;6.85;2.72;;;5.50;99.90;;;;;;5021325;28;20119;-84
2023/03/16 07:47:42;;;;;;;4.85;2.40;;;5.50;99.90;;;;;;5034761;28;20040;-83
2023/03/16 07:50:10;;;;;;;5.05;2.85;;;5.40;99.90;;;;;;5070371;28;20120;-84
2023/03/16 07:52:36;;;;;;;6.80;3.13;;;5.40;99.90;;;;;;5036964;28;20037;-85
2023/03/16 07:55:02;;;;;;;14.30;3.33;;;5.40;99.90;;;;;;5036814;28;20040;-85
2023/03/16 07:57:28;;;;;;;5.93;2.40;;;5.50;99.90;;;;;;5060326;28;20075;-85
2023/03/16 07:59:54;;;;;;;5.63;3.10;;;5.60;99.90;;;;;;5052893;28;20066;-85
2023/03/16 08:02:20;;;;;;;3.88;2.58;;;5.60;99.90;;;;;;5069784;28;20121;-84
2023/03/16 08:04:46;;;;;;;4.40;2.83;;;5.70;99.90;;;;;;5036188;28;20072;-84
2023/03/16 08:07:14;;;;;;;4.35;2.50;;;5.70;99.90;;;;;;5053052;28;20071;-85
2023/03/16 08:09:40;;;;;;;5.45;3.15;;;5.70;99.90;;;;;;5069553;28;20511;-84
2023/03/16 08:12:07;;;;;;;4.43;2.53;;;5.90;99.90;;;;;;5053218;28;20082;-84
2023/03/16 08:14:33;;;;;;;5.30;2.97;;;5.70;99.90;;;;;;5036604;28;20111;-85
2023/03/16 08:17:03;;;;;;;7.65;2.70;;;5.70;99.90;;;;;;5053195;28;20040;-85
2023/03/16 08:19:29;;;;;;;5.75;2.97;;;5.70;99.90;;;;;;5070343;28;20346;-84
2023/03/16 08:21:56;;;;;;;4.47;3.13;;;5.60;99.90;;;;;;5052805;28;20048;-85
2023/03/16 08:24:22;;;;;;;6.32;2.63;;;5.80;99.90;;;;;;5035913;28;20075;-84
2023/03/16 08:26:47;;;;;;;5.32;2.63;;;5.60;99.90;;;;;;5072435;28;20132;-85
2023/03/16 08:29:13;;;;;;;4.67;2.47;;;5.30;99.90;;;;;;5040587;28;20119;-85
2023/03/16 08:31:41;;;;;;;5.28;2.28;;;5.60;99.90;;;;;;5056746;28;20490;-85
2023/03/16 08:34:08;;;;;;;4.43;2.80;;;5.60;99.90;;;;;;5057324;28;20102;-84
2023/03/16 08:36:35;;;;;;;5.80;2.75;;;5.60;99.90;;;;;;5074071;28;20075;-85
2023/03/16 08:39:04;;;;;;;4.80;2.78;;;5.60;99.90;;;;;;5073633;28;20047;-84
2023/03/16 08:41:31;;;;;;;7.38;2.72;;;5.60;99.90;;;;;;5041176;28;20111;-85
2023/03/16 08:43:58;;;;;;;5.55;2.97;;;5.60;99.90;;;;;;5040001;28;20079;-83
2023/03/16 08:46:24;;;;;;;5.55;2.97;;;5.60;99.90;;;;;;5056240;28;20127;-84
2023/03/16 08:48:51;;;;;;;6.90;3.58;;;5.60;99.90;;;;;;5072900;28;20080;-85
2023/03/16 08:51:18;;;;;;;6.93;2.80;;;5.60;99.90;;;;;;5073857;28;20115;-85
2023/03/16 08:53:44;;;;;;;6.53;3.22;;;5.70;99.90;;;;;;5057442;28;20497;-85
2023/03/16 08:56:13;;;;;;;5.22;2.85;;;5.70;99.90;;;;;;5057208;28;20123;-85
2023/03/16 08:58:44;;;;;;;6.10;3.20;;;5.60;99.90;;;;;;5070896;28;20067;-85
2023/03/16 09:01:11;;;;;;;5.45;2.90;;;5.50;99.90;;;;;;5040683;28;20040;-86
2023/03/16 09:03:37;;;;;;;4.15;2.78;;;5.60;99.90;;;;;;5056875;28;20350;-84
2023/03/16 09:06:09;;;;;;;8.02;2.90;;;5.70;99.90;;;;;;5056787;28;20036;-86
2023/03/16 09:08:37;;;;;;;7.22;3.58;;;5.60;99.90;;;;;;5056543;28;20059;-85
2023/03/16 09:11:09;;;;;;;4.05;2.63;;;5.60;99.90;;;;;;5073219;28;20040;-85
2023/03/16 09:13:37;;;;;;;7.55;3.20;;;5.60;99.90;;;;;;5073098;28;20036;-85
2023/03/16 09:16:04;;;;;;;5.70;3.25;;;5.60;99.90;;;;;;5055952;28;20037;-85
2023/03/16 09:18:31;;;;;;;6.10;2.97;;;5.60;99.90;;;;;;5053698;28;20048;-85
2023/03/16 09:21:02;;;;;;;6.68;3.20;;;5.50;99.90;;;;;;5056043;28;20032;-85
2023/03/16 09:23:29;;;;;;;6.28;3.00;;;5.50;99.90;;;;;;5039629;28;20979;-85
2023/03/16 09:26:04;;;;;;;7.30;3.42;;;5.60;99.90;;;;;;5072250;28;20080;-85
2023/03/16 09:28:30;;;;;;;6.38;3.28;;;6.00;99.90;;;;;;5055449;28;20040;-84
2023/03/16 09:30:57;;;;;;;5.82;3.55;;;5.50;99.90;;;;;;5055085;28;20047;-84
2023/03/16 09:33:24;;;;;;;5.53;3.15;;;5.60;99.90;;;;;;5053234;28;20043;-84
2023/03/16 09:35:51;;;;;;;5.18;3.05;;;6.00;99.90;;;;;;5055378;28;20067;-84
2023/03/16 09:38:18;;;;;;;5.72;2.70;;;5.70;99.90;;;;;;5054524;28;20040;-84
2023/03/16 09:40:47;;;;;;;8.98;3.53;;;5.70;99.90;;;;;;5071207;28;20041;-84
2023/03/16 09:43:32;;;;;;;6.90;3.38;;;5.90;99.90;;;;;;5067205;28;20384;-84
2023/03/16 09:46:04;;;;;;;7.82;3.30;;;5.90;99.90;;;;;;5069946;28;20079;-84
2023/03/16 09:48:34;;;;;;;6.32;3.10;;;6.00;99.90;;;;;;5055382;28;20040;-84
2023/03/16 09:51:03;;;;;;;6.65;3.65;;;6.10;99.90;;;;;;5069364;28;20041;-84
2023/03/16 09:53:35;;;;;;;7.07;3.45;;;6.50;99.90;;;;;;5055356;28;20032;-84
2023/03/16 09:56:09;;;;;;;8.40;3.83;;;6.40;99.90;;;;;;5052595;28;20044;-84
2023/03/16 09:58:35;;;;;;;5.50;3.25;;;6.30;99.90;;;;;;5071665;28;20045;-84
2023/03/16 10:01:10;;;;;;;5.25;2.75;;;6.40;99.90;;;;;;5071237;28;20052;-84
2023/03/16 10:03:57;;;;;;;5.13;3.25;;;6.40;99.90;;;;;;5071329;28;20086;-84
2023/03/16 10:06:25;;;;;;;8.02;3.28;;;6.20;99.90;;;;;;5052658;28;20060;-84
2023/03/16 10:09:12;;;;;;;7.63;3.33;;;6.20;99.90;;;;;;5071646;28;20477;-83
2023/03/16 10:11:42;;;;;;;7.63;3.27;;;6.20;99.90;;;;;;5054159;28;20036;-84
2023/03/16 10:14:21;;;;;;;6.78;3.42;;;6.20;99.90;;;;;;5070228;28;20033;-83
2023/03/16 10:16:51;;;;;;;9.43;3.20;;;6.30;99.90;;;;;;5068157;28;20503;-84
2023/03/16 10:19:31;;;;;;;6.50;3.60;;;6.20;99.90;;;;;;5070596;28;20094;-83
2023/03/16 10:22:01;;;;;;;6.97;3.70;;;6.20;99.90;;;;;;5052461;28;20489;-83
2023/03/16 10:24:46;;;;;;;6.53;3.30;;;6.10;99.90;;;;;;5069536;28;20032;-83
2023/03/16 10:27:19;;;;;;;7.15;3.70;;;6.20;99.90;;;;;;5067613;28;20115;-84
2023/03/16 10:29:46;;;;;;;7.93;3.22;;;6.20;99.90;;;;;;5069223;28;20451;-83
2023/03/16 10:32:13;;;;;;;;;;;6.10;99.90;;;;;;5036939;28;20032;-84
2023/03/16 10:34:40;;;;;;;8.27;3.22;;;6.10;99.90;;;;;;5070863;28;19916;-83
2023/03/16 10:37:12;;;;;;;9.38;3.38;;;6.10;99.90;;;;;;5053856;28;20471;-83
2023/03/16 10:39:41;;;;;;;8.55;3.70;;;6.20;99.90;;;;;;5070723;28;20134;-83
2023/03/16 10:42:17;;;;;;;6.85;3.65;;;6.20;99.90;;;;;;5053198;28;20036;-83
2023/03/16 10:44:44;;;;;;;6.93;3.40;;;6.10;99.90;;;;;;5051319;28;20036;-83
2023/03/16 10:47:17;;;;;;;;;;;6.10;99.90;;;;;;5070402;28;20048;-83
2023/03/16 10:49:47;;;;;;;7.78;3.58;;;6.10;99.90;;;;;;5070133;28;19995;-83
2023/03/16 10:52:22;;;;;;;8.77;3.75;;;6.10;99.90;;;;;;5038299;28;20154;-83
2023/03/16 10:54:53;;;;;;;6.40;3.22;;;6.20;99.90;;;;;;5067728;28;20037;-83
2023/03/16 10:57:19;;;;;;;7.07;3.40;;;6.20;99.90;;;;;;5053464;28;20043;-83
2023/03/16 10:59:51;;;;;;;6.18;2.97;;;6.20;99.90;;;;;;5053877;28;20041;-83
2023/03/16 11:02:22;;;;;;;12.15;3.50;;;6.20;99.90;;;;;;5067940;28;20036;-84
2023/03/16 11:04:49;;;;;;;7.25;3.40;;;6.20;99.90;;;;;;5053284;28;20157;-84
2023/03/16 11:07:17;;;;;;;4.40;2.80;;;6.30;99.90;;;;;;5037374;28;20427;-84
2023/03/16 11:09:43;;;;;;;5.70;2.80;;;6.30;99.90;;;;;;5049475;28;20032;-84
2023/03/16 11:12:30;;;;;;;8.00;4.00;;;6.50;99.90;;;;;;5069973;28;20459;-84
2023/03/16 11:15:09;;;;;;;8.55;3.55;;;6.40;99.90;;;;;;5052296;28;20063;-84
2023/03/16 11:17:44;;;;;;;7.03;3.50;;;6.40;99.90;;;;;;5070073;28;20504;-84
2023/03/16 11:20:22;;;;;;;4.47;2.67;;;6.40;99.90;;;;;;5052905;28;20040;-84
2023/03/16 11:22:48;;;;;;;10.43;3.65;;;6.50;99.90;;;;;;5051274;28;20440;-84
2023/03/16 11:25:41;;;;;;;9.27;3.28;;;6.50;99.90;;;;;;5069962;28;20036;-84
2023/03/16 11:28:38;;;;;;;5.18;2.83;;;6.60;99.90;;;;;;5064758;28;20055;-84
2023/03/16 11:31:31;;;;;;;7.03;3.00;;;6.70;99.90;;;;;;5058874;28;20051;-84
2023/03/16 11:33:57;;;;;;;6.53;2.50;;;6.90;99.90;;;;;;5068743;28;20094;-84
2023/03/16 11:36:47;;;;;;;7.07;3.30;;;6.70;99.90;;;;;;5019580;28;20045;-84
2023/03/16 11:39:26;;;;;;;4.60;2.60;;;6.80;99.90;;;;;;5068888;28;20119;-84
2023/03/16 11:41:57;;;;;;;5.25;3.22;;;6.90;99.90;;;;;;5049107;28;20040;-84
2023/03/16 11:44:38;;;;;;;7.70;3.03;;;6.90;99.90;;;;;;5054361;28;20380;-84
2023/03/16 11:47:46;;;;;;;7.30;3.13;;;6.90;99.90;;;;;;5069640;28;20075;-84
2023/03/16 11:50:24;;;;;;;6.13;2.78;;;7.00;99.90;;;;;;5017165;28;20080;-84
2023/03/16 11:53:16;;;;;;;6.10;3.30;;;7.10;99.90;;;;;;5053484;28;20104;-84
2023/03/16 11:56:01;;;;;;;6.28;2.95;;;7.20;99.90;;;;;;5065391;28;20029;-85
2023/03/16 11:58:50;;;;;;;6.55;3.30;;;7.20;99.90;;;;;;5068387;28;20033;-84
2023/03/16 12:01:58;;;;;;;4.47;2.60;;;7.30;99.90;;;;;;5067758;28;20123;-84
2023/03/16 12:04:39;;;;;;;7.97;2.95;;;7.30;99.90;;;;;;5064184;28;20500;-83
2023/03/16 12:07:34;;;;;;;5.45;3.08;;;7.30;99.90;;;;;;5055105;28;20079;-83
2023/03/16 12:10:22;;;;;;;6.22;3.13;;;7.40;99.90;;;;;;5066006;28;20052;-83
2023/03/16 12:13:33;;;;;;;6.00;3.25;;;7.40;99.90;;;;;;5072557;28;20036;-84
2023/03/16 12:16:07;;;;;;;4.25;2.47;;;7.60;99.90;;;;;;5058340;28;20068;-84
2023/03/16 12:18:53;;;;;;;3.53;2.63;;;7.80;99.90;;;;;;5073645;28;20044;-84
2023/03/16 12:21:24;;;;;;;6.43;2.55;;;7.90;99.90;;;;;;5071785;28;20492;-84
2023/03/16 12:23:59;;;;;;;4.25;2.40;;;8.10;99.90;;;;;;5057115;28;20538;-84
2023/03/16 12:26:29;;;;;;;5.60;2.60;;;8.10;99.90;;;;;;5071986;28;20476;-84
2023/03/16 12:28:56;;;;;;;4.65;2.47;;;8.20;99.90;;;;;;5056335;28;20056;-84
2023/03/16 12:31:36;;;;;;;4.00;2.80;;;8.20;99.90;;;;;;5073769;28;20053;-85
2023/03/16 12:34:20;;;;;;;5.10;2.97;;;8.30;99.90;;;;;;5073729;28;20032;-85
2023/03/16 12:36:56;;;;;;;5.50;2.53;;;8.30;99.90;;;;;;5071964;28;20032;-85
2023/03/16 12:39:52;;;;;;;7.50;2.42;;;8.30;99.90;;;;;;5057101;28;20032;-85
2023/03/16 12:42:41;;;;;;;3.80;2.08;;;8.50;99.90;;;;;;5073169;28;20032;-85
2023/03/16 12:45:14;;;;;;;5.95;2.60;;;8.90;99.90;;;;;;5053970;28;20047;-85
2023/03/16 12:47:49;;;;;;;5.97;2.38;;;9.20;99.90;;;;;;5056002;28;20047;-85
2023/03/16 12:50:17;;;;;;;4.32;2.20;;;9.30;99.90;;;;;;5055851;28;20037;-84
2023/03/16 12:52:49;;;;;;;5.07;2.60;;;9.30;99.90;;;;;;5040024;28;20076;-84
2023/03/16 12:55:18;;;;;;;3.40;1.88;;;9.30;99.90;;;;;;5056251;28;20036;-85
2023/03/16 12:57:46;;;;;;;4.10;2.42;;;9.10;99.90;;;;;;5056792;28;20079;-85
2023/03/16 13:00:14;;;;;;;4.55;2.50;;;9.20;99.90;;;;;;5056407;28;20041;-85
2023/03/16 13:02:49;;;;;;;5.90;2.25;;;9.10;99.90;;;;;;5057063;28;20093;-85
2023/03/16 13:05:30;;;;;;;5.88;2.28;;;9.00;99.90;;;;;;5056955;28;20496;-84
2023/03/16 13:08:17;;;;;;;3.92;2.20;;;9.20;99.90;;;;;;5056724;28;20115;-85
2023/03/16 13:11:04;;;;;;;6.18;2.25;;;9.10;99.90;;;;;;5104852;28;20352;-85
2023/03/16 13:13:31;;;;;;;3.58;2.20;;;9.00;99.90;;;;;;5056143;28;20780;-85